📊 Raw Sensor Data
Showing records 46251 to 46275 of 85,067 total
| ID | Distance (ft) | Battery V | Battery A | Int Temp (°F) | Int Humid (%) | Ext Temp (°F) | Solar V | RSSI | SNR | Time Stamp |
|---|---|---|---|---|---|---|---|---|---|---|
| 38829 | -- | 3.99 | 0 | 74 | 41 | 69 | 5.10 | -75 | 8 | 04/25/2025 03:45 PM |
| 38828 | -- | 3.99 | 0 | 73 | 41 | 62 | 5.10 | -76 | 8 | 04/25/2025 03:30 PM |
| 38827 | -- | 3.99 | 0 | 69 | 43 | 65 | 5.10 | -76 | 8 | 04/25/2025 03:15 PM |
| 38826 | 15.6 | 4.00 | 5 | 70 | 43 | 66 | 5.10 | -74 | 7 | 04/25/2025 03:00 PM |
| 38825 | -- | 3.98 | 0 | 70 | 42 | 63 | 5.10 | -76 | 8 | 04/25/2025 02:45 PM |
| 38824 | -- | 4.01 | 5 | 72 | 41 | 66 | 5.10 | -75 | 9 | 04/25/2025 02:30 PM |
| 38823 | 15.6 | 3.98 | 5 | 72 | 40 | 67 | 5.10 | -74 | 8 | 04/25/2025 02:15 PM |
| 38822 | 15.6 | 3.98 | 5 | 68 | 41 | 65 | 5.10 | -75 | 8 | 04/25/2025 02:01 PM |
| 38821 | 15.6 | 4.02 | 5 | 67 | 42 | 65 | 5.10 | -76 | 8 | 04/25/2025 01:45 PM |
| 38820 | 15.6 | 3.98 | 5 | 66 | 43 | 64 | 5.10 | -73 | 8 | 04/25/2025 01:30 PM |
| 38819 | 15.6 | 3.98 | 0 | 66 | 43 | 63 | 5.10 | -72 | 8 | 04/25/2025 01:15 PM |
| 38818 | -- | 3.98 | 5 | 66 | 42 | 63 | 5.10 | -74 | 8 | 04/25/2025 01:00 PM |
| 38817 | 15.7 | 3.98 | 5 | 67 | 42 | 64 | 5.10 | -72 | 8 | 04/25/2025 12:45 PM |
| 38816 | 15.6 | 4.12 | 5 | 67 | 41 | 63 | 5.10 | -73 | 8 | 04/25/2025 12:30 PM |
| 38815 | -- | 4.13 | 5 | 66 | 41 | 65 | 5.10 | -71 | 8 | 04/25/2025 12:16 PM |
| 38814 | -- | 3.98 | 0 | 65 | 42 | 62 | 5.10 | -75 | 8 | 04/25/2025 12:00 PM |
| 38813 | 15.7 | 3.98 | 0 | 65 | 41 | 62 | 5.10 | -73 | 8 | 04/25/2025 11:45 AM |
| 38812 | -- | 3.98 | 5 | 65 | 40 | 62 | 5.10 | -73 | 8 | 04/25/2025 11:30 AM |
| 38811 | 15.6 | 3.98 | 0 | 65 | 40 | 63 | 5.10 | -73 | 8 | 04/25/2025 11:15 AM |
| 38810 | -- | 3.98 | 5 | 64 | 40 | 61 | 5.10 | -74 | 9 | 04/25/2025 11:00 AM |
| 38809 | -- | 3.98 | 5 | 63 | 40 | 64 | 5.10 | -73 | 9 | 04/25/2025 10:45 AM |
| 38808 | -- | 3.98 | 5 | 62 | 40 | 62 | 5.10 | -74 | 8 | 04/25/2025 10:30 AM |
| 38807 | -- | 4.04 | 5 | 61 | 40 | 60 | 5.10 | -76 | 8 | 04/25/2025 10:15 AM |
| 38806 | -- | 4.06 | 5 | 58 | 41 | 59 | 5.10 | -76 | 8 | 04/25/2025 09:45 AM |
| 38805 | -- | 3.98 | 5 | 59 | 40 | 58 | 5.10 | -75 | 9 | 04/25/2025 09:30 AM |